sensor_id;sensor_type;location;lat;lon;timestamp;P1;durP1;ratioP1;P2;durP2;ratioP2
66272;SDS011;58450;52.150;4.466;2024-03-17T00:01:24;7.97;;;3.50;;
66272;SDS011;58450;52.150;4.466;2024-03-17T00:03:50;11.75;;;3.63;;
66272;SDS011;58450;52.150;4.466;2024-03-17T00:06:18;14.20;;;4.35;;
66272;SDS011;58450;52.150;4.466;2024-03-17T00:08:46;9.98;;;2.97;;
66272;SDS011;58450;52.150;4.466;2024-03-17T00:11:13;9.73;;;3.63;;
66272;SDS011;58450;52.150;4.466;2024-03-17T00:13:39;13.57;;;3.78;;
66272;SDS011;58450;52.150;4.466;2024-03-17T00:16:07;11.95;;;3.88;;
66272;SDS011;58450;52.150;4.466;2024-03-17T00:18:33;15.10;;;3.97;;
66272;SDS011;58450;52.150;4.466;2024-03-17T00:21:02;9.18;;;3.63;;
66272;SDS011;58450;52.150;4.466;2024-03-17T00:23:29;11.80;;;3.40;;
66272;SDS011;58450;52.150;4.466;2024-03-17T00:25:58;10.18;;;3.63;;
66272;SDS011;58450;52.150;4.466;2024-03-17T00:28:25;13.35;;;3.42;;
66272;SDS011;58450;52.150;4.466;2024-03-17T00:30:52;10.60;;;3.20;;
66272;SDS011;58450;52.150;4.466;2024-03-17T00:33:19;6.97;;;3.17;;
66272;SDS011;58450;52.150;4.466;2024-03-17T00:35:46;8.13;;;3.33;;
66272;SDS011;58450;52.150;4.466;2024-03-17T00:38:13;9.98;;;3.42;;
66272;SDS011;58450;52.150;4.466;2024-03-17T00:40:40;8.52;;;2.80;;
66272;SDS011;58450;52.150;4.466;2024-03-17T00:43:08;10.77;;;3.67;;
66272;SDS011;58450;52.150;4.466;2024-03-17T00:45:37;15.38;;;3.30;;
66272;SDS011;58450;52.150;4.466;2024-03-17T00:48:04;10.40;;;3.05;;
66272;SDS011;58450;52.150;4.466;2024-03-17T00:50:33;11.07;;;3.40;;
66272;SDS011;58450;52.150;4.466;2024-03-17T00:52:59;9.85;;;2.83;;
66272;SDS011;58450;52.150;4.466;2024-03-17T00:55:28;11.27;;;3.55;;
66272;SDS011;58450;52.150;4.466;2024-03-17T00:57:55;6.88;;;2.85;;
66272;SDS011;58450;52.150;4.466;2024-03-17T01:00:24;10.43;;;3.25;;
66272;SDS011;58450;52.150;4.466;2024-03-17T01:02:50;12.52;;;3.10;;
66272;SDS011;58450;52.150;4.466;2024-03-17T01:05:18;7.70;;;3.60;;
66272;SDS011;58450;52.150;4.466;2024-03-17T01:07:44;9.82;;;3.60;;
66272;SDS011;58450;52.150;4.466;2024-03-17T01:10:13;8.98;;;3.28;;
66272;SDS011;58450;52.150;4.466;2024-03-17T01:12:40;7.43;;;3.72;;
66272;SDS011;58450;52.150;4.466;2024-03-17T01:15:08;12.77;;;3.80;;
66272;SDS011;58450;52.150;4.466;2024-03-17T01:17:37;10.65;;;3.88;;
66272;SDS011;58450;52.150;4.466;2024-03-17T01:20:05;9.38;;;3.75;;
66272;SDS011;58450;52.150;4.466;2024-03-17T01:22:33;9.65;;;4.28;;
66272;SDS011;58450;52.150;4.466;2024-03-17T01:25:01;9.85;;;4.03;;
66272;SDS011;58450;52.150;4.466;2024-03-17T01:27:28;13.40;;;4.10;;
66272;SDS011;58450;52.150;4.466;2024-03-17T01:29:55;10.40;;;4.32;;
66272;SDS011;58450;52.150;4.466;2024-03-17T01:32:22;9.05;;;4.07;;
66272;SDS011;58450;52.150;4.466;2024-03-17T01:34:51;22.27;;;3.97;;
66272;SDS011;58450;52.150;4.466;2024-03-17T01:37:17;12.02;;;4.00;;
66272;SDS011;58450;52.150;4.466;2024-03-17T01:39:45;12.60;;;4.88;;
66272;SDS011;58450;52.150;4.466;2024-03-17T01:42:11;12.02;;;4.57;;
66272;SDS011;58450;52.150;4.466;2024-03-17T01:44:39;10.38;;;4.40;;
66272;SDS011;58450;52.150;4.466;2024-03-17T01:47:06;13.65;;;4.47;;
66272;SDS011;58450;52.150;4.466;2024-03-17T01:49:35;13.43;;;4.85;;
66272;SDS011;58450;52.150;4.466;2024-03-17T01:52:03;12.40;;;4.75;;
66272;SDS011;58450;52.150;4.466;2024-03-17T01:54:31;10.77;;;4.63;;
66272;SDS011;58450;52.150;4.466;2024-03-17T01:56:58;10.50;;;4.40;;
66272;SDS011;58450;52.150;4.466;2024-03-17T01:59:26;12.10;;;4.10;;
66272;SDS011;58450;52.150;4.466;2024-03-17T02:01:52;11.93;;;5.13;;
66272;SDS011;58450;52.150;4.466;2024-03-17T02:04:20;9.25;;;4.68;;
66272;SDS011;58450;52.150;4.466;2024-03-17T02:06:48;10.27;;;4.68;;
66272;SDS011;58450;52.150;4.466;2024-03-17T02:09:16;12.30;;;4.88;;
66272;SDS011;58450;52.150;4.466;2024-03-17T02:11:46;11.98;;;4.47;;
66272;SDS011;58450;52.150;4.466;2024-03-17T02:14:12;12.77;;;4.63;;
66272;SDS011;58450;52.150;4.466;2024-03-17T02:16:43;14.35;;;5.28;;
66272;SDS011;58450;52.150;4.466;2024-03-17T02:19:09;11.45;;;5.45;;
66272;SDS011;58450;52.150;4.466;2024-03-17T02:21:37;11.02;;;5.07;;
66272;SDS011;58450;52.150;4.466;2024-03-17T02:24:05;13.23;;;4.93;;
66272;SDS011;58450;52.150;4.466;2024-03-17T02:26:35;12.15;;;5.47;;
66272;SDS011;58450;52.150;4.466;2024-03-17T02:29:02;13.07;;;5.22;;
66272;SDS011;58450;52.150;4.466;2024-03-17T02:31:30;15.32;;;5.30;;
66272;SDS011;58450;52.150;4.466;2024-03-17T02:33:56;14.02;;;5.63;;
66272;SDS011;58450;52.150;4.466;2024-03-17T02:36:24;13.93;;;6.05;;
66272;SDS011;58450;52.150;4.466;2024-03-17T02:38:50;11.20;;;5.57;;
66272;SDS011;58450;52.150;4.466;2024-03-17T02:41:37;10.10;;;5.07;;
66272;SDS011;58450;52.150;4.466;2024-03-17T02:44:05;14.32;;;5.50;;
66272;SDS011;58450;52.150;4.466;2024-03-17T02:46:32;15.82;;;5.88;;
66272;SDS011;58450;52.150;4.466;2024-03-17T02:49:00;11.35;;;5.80;;
66272;SDS011;58450;52.150;4.466;2024-03-17T02:51:28;13.57;;;6.22;;
66272;SDS011;58450;52.150;4.466;2024-03-17T02:53:55;10.93;;;5.25;;
66272;SDS011;58450;52.150;4.466;2024-03-17T02:56:25;14.13;;;5.57;;
66272;SDS011;58450;52.150;4.466;2024-03-17T02:58:54;14.77;;;5.90;;
66272;SDS011;58450;52.150;4.466;2024-03-17T03:01:22;13.50;;;5.68;;
66272;SDS011;58450;52.150;4.466;2024-03-17T03:03:49;12.35;;;5.65;;
66272;SDS011;58450;52.150;4.466;2024-03-17T03:06:17;11.50;;;5.80;;
66272;SDS011;58450;52.150;4.466;2024-03-17T03:08:45;12.82;;;5.72;;
66272;SDS011;58450;52.150;4.466;2024-03-17T03:11:15;12.73;;;6.13;;
66272;SDS011;58450;52.150;4.466;2024-03-17T03:13:44;11.68;;;5.90;;
66272;SDS011;58450;52.150;4.466;2024-03-17T03:16:13;11.23;;;5.47;;
66272;SDS011;58450;52.150;4.466;2024-03-17T03:18:41;11.43;;;6.30;;
66272;SDS011;58450;52.150;4.466;2024-03-17T03:21:10;14.32;;;5.65;;
66272;SDS011;58450;52.150;4.466;2024-03-17T03:23:38;13.45;;;5.65;;
66272;SDS011;58450;52.150;4.466;2024-03-17T03:26:06;13.43;;;5.43;;
66272;SDS011;58450;52.150;4.466;2024-03-17T03:28:35;11.68;;;6.05;;
66272;SDS011;58450;52.150;4.466;2024-03-17T03:31:03;12.40;;;5.90;;
66272;SDS011;58450;52.150;4.466;2024-03-17T03:33:32;13.77;;;6.20;;
66272;SDS011;58450;52.150;4.466;2024-03-17T03:36:06;16.48;;;6.30;;
66272;SDS011;58450;52.150;4.466;2024-03-17T03:38:35;13.95;;;6.00;;
66272;SDS011;58450;52.150;4.466;2024-03-17T03:41:06;14.63;;;6.65;;
66272;SDS011;58450;52.150;4.466;2024-03-17T03:43:35;13.75;;;6.25;;
66272;SDS011;58450;52.150;4.466;2024-03-17T03:46:04;15.13;;;5.78;;
66272;SDS011;58450;52.150;4.466;2024-03-17T03:48:33;14.65;;;5.78;;
66272;SDS011;58450;52.150;4.466;2024-03-17T03:51:04;14.80;;;6.45;;
66272;SDS011;58450;52.150;4.466;2024-03-17T03:53:32;12.98;;;6.05;;
66272;SDS011;58450;52.150;4.466;2024-03-17T03:56:00;12.52;;;6.38;;
66272;SDS011;58450;52.150;4.466;2024-03-17T03:58:32;14.98;;;6.97;;
66272;SDS011;58450;52.150;4.466;2024-03-17T04:01:00;11.73;;;5.88;;
66272;SDS011;58450;52.150;4.466;2024-03-17T04:03:31;13.07;;;6.03;;
66272;SDS011;58450;52.150;4.466;2024-03-17T04:06:04;13.32;;;5.72;;
66272;SDS011;58450;52.150;4.466;2024-03-17T04:08:34;15.00;;;6.25;;
66272;SDS011;58450;52.150;4.466;2024-03-17T04:11:03;11.55;;;5.70;;
66272;SDS011;58450;52.150;4.466;2024-03-17T04:13:31;15.35;;;6.28;;
66272;SDS011;58450;52.150;4.466;2024-03-17T04:15:59;13.40;;;6.47;;
66272;SDS011;58450;52.150;4.466;2024-03-17T04:18:27;11.20;;;5.90;;
66272;SDS011;58450;52.150;4.466;2024-03-17T04:20:56;12.10;;;6.30;;
66272;SDS011;58450;52.150;4.466;2024-03-17T04:23:29;15.18;;;6.70;;
66272;SDS011;58450;52.150;4.466;2024-03-17T04:25:58;13.82;;;6.35;;
66272;SDS011;58450;52.150;4.466;2024-03-17T04:28:27;16.20;;;5.97;;
66272;SDS011;58450;52.150;4.466;2024-03-17T04:31:02;14.57;;;5.97;;
66272;SDS011;58450;52.150;4.466;2024-03-17T04:33:31;13.13;;;5.90;;
66272;SDS011;58450;52.150;4.466;2024-03-17T04:35:59;12.25;;;5.53;;
66272;SDS011;58450;52.150;4.466;2024-03-17T04:38:29;17.63;;;5.95;;
66272;SDS011;58450;52.150;4.466;2024-03-17T04:40:56;11.45;;;5.97;;
66272;SDS011;58450;52.150;4.466;2024-03-17T04:43:30;14.17;;;6.37;;
66272;SDS011;58450;52.150;4.466;2024-03-17T04:45:59;12.93;;;6.10;;
66272;SDS011;58450;52.150;4.466;2024-03-17T04:48:30;13.80;;;5.75;;
66272;SDS011;58450;52.150;4.466;2024-03-17T04:50:58;13.75;;;6.45;;
66272;SDS011;58450;52.150;4.466;2024-03-17T04:53:26;15.30;;;6.45;;
66272;SDS011;58450;52.150;4.466;2024-03-17T04:56:05;17.23;;;6.25;;
66272;SDS011;58450;52.150;4.466;2024-03-17T04:58:33;13.57;;;6.55;;
66272;SDS011;58450;52.150;4.466;2024-03-17T05:01:05;13.45;;;6.55;;
66272;SDS011;58450;52.150;4.466;2024-03-17T05:03:32;13.82;;;6.22;;
66272;SDS011;58450;52.150;4.466;2024-03-17T05:06:00;15.73;;;6.30;;
66272;SDS011;58450;52.150;4.466;2024-03-17T05:08:28;12.18;;;6.50;;
66272;SDS011;58450;52.150;4.466;2024-03-17T05:10:58;15.98;;;7.22;;
66272;SDS011;58450;52.150;4.466;2024-03-17T05:13:27;12.60;;;6.20;;
66272;SDS011;58450;52.150;4.466;2024-03-17T05:15:55;14.13;;;6.70;;
66272;SDS011;58450;52.150;4.466;2024-03-17T05:18:23;18.52;;;6.30;;
66272;SDS011;58450;52.150;4.466;2024-03-17T05:20:57;15.05;;;6.85;;
66272;SDS011;58450;52.150;4.466;2024-03-17T05:23:27;15.93;;;7.38;;
66272;SDS011;58450;52.150;4.466;2024-03-17T05:25:55;14.43;;;7.00;;
66272;SDS011;58450;52.150;4.466;2024-03-17T05:28:25;19.33;;;7.65;;
66272;SDS011;58450;52.150;4.466;2024-03-17T05:30:55;15.88;;;6.80;;
66272;SDS011;58450;52.150;4.466;2024-03-17T05:33:23;19.27;;;7.30;;
66272;SDS011;58450;52.150;4.466;2024-03-17T05:35:53;13.85;;;6.78;;
66272;SDS011;58450;52.150;4.466;2024-03-17T05:38:23;13.00;;;6.68;;
66272;SDS011;58450;52.150;4.466;2024-03-17T05:40:53;15.32;;;6.72;;
66272;SDS011;58450;52.150;4.466;2024-03-17T05:43:21;11.20;;;6.03;;
66272;SDS011;58450;52.150;4.466;2024-03-17T05:45:51;18.00;;;7.28;;
66272;SDS011;58450;52.150;4.466;2024-03-17T05:48:19;16.10;;;6.70;;
66272;SDS011;58450;52.150;4.466;2024-03-17T05:50:48;16.98;;;7.45;;
66272;SDS011;58450;52.150;4.466;2024-03-17T05:53:16;14.75;;;7.18;;
66272;SDS011;58450;52.150;4.466;2024-03-17T05:55:45;15.07;;;6.75;;
66272;SDS011;58450;52.150;4.466;2024-03-17T05:58:12;17.15;;;6.60;;
66272;SDS011;58450;52.150;4.466;2024-03-17T06:00:40;13.20;;;6.80;;
66272;SDS011;58450;52.150;4.466;2024-03-17T06:03:09;13.52;;;6.28;;
66272;SDS011;58450;52.150;4.466;2024-03-17T06:05:38;14.32;;;6.50;;
66272;SDS011;58450;52.150;4.466;2024-03-17T06:08:07;14.10;;;7.07;;
66272;SDS011;58450;52.150;4.466;2024-03-17T06:10:37;15.45;;;6.53;;
66272;SDS011;58450;52.150;4.466;2024-03-17T06:13:09;12.68;;;6.03;;
66272;SDS011;58450;52.150;4.466;2024-03-17T06:15:38;14.88;;;6.70;;
66272;SDS011;58450;52.150;4.466;2024-03-17T06:18:06;12.82;;;6.78;;
66272;SDS011;58450;52.150;4.466;2024-03-17T06:20:40;16.27;;;6.28;;
66272;SDS011;58450;52.150;4.466;2024-03-17T06:23:09;13.82;;;6.85;;
66272;SDS011;58450;52.150;4.466;2024-03-17T06:25:40;14.85;;;7.20;;
66272;SDS011;58450;52.150;4.466;2024-03-17T06:28:08;12.88;;;6.75;;
66272;SDS011;58450;52.150;4.466;2024-03-17T06:30:39;16.13;;;6.85;;
66272;SDS011;58450;52.150;4.466;2024-03-17T06:33:08;15.02;;;6.85;;
66272;SDS011;58450;52.150;4.466;2024-03-17T06:35:41;12.25;;;6.28;;
66272;SDS011;58450;52.150;4.466;2024-03-17T06:38:08;11.73;;;6.35;;
66272;SDS011;58450;52.150;4.466;2024-03-17T06:40:36;13.88;;;6.38;;
66272;SDS011;58450;52.150;4.466;2024-03-17T06:43:04;17.80;;;6.65;;
66272;SDS011;58450;52.150;4.466;2024-03-17T06:45:33;12.32;;;6.32;;
66272;SDS011;58450;52.150;4.466;2024-03-17T06:48:01;13.82;;;6.22;;
66272;SDS011;58450;52.150;4.466;2024-03-17T06:50:30;14.15;;;6.03;;
66272;SDS011;58450;52.150;4.466;2024-03-17T06:52:57;13.45;;;6.70;;
66272;SDS011;58450;52.150;4.466;2024-03-17T06:55:25;15.90;;;6.60;;
66272;SDS011;58450;52.150;4.466;2024-03-17T06:57:53;12.73;;;6.55;;
66272;SDS011;58450;52.150;4.466;2024-03-17T07:00:21;10.35;;;6.18;;
66272;SDS011;58450;52.150;4.466;2024-03-17T07:02:50;16.10;;;6.78;;
66272;SDS011;58450;52.150;4.466;2024-03-17T07:05:18;14.15;;;6.10;;
66272;SDS011;58450;52.150;4.466;2024-03-17T07:07:47;11.50;;;5.88;;
66272;SDS011;58450;52.150;4.466;2024-03-17T07:10:15;13.40;;;6.25;;
66272;SDS011;58450;52.150;4.466;2024-03-17T07:12:42;15.05;;;6.53;;
66272;SDS011;58450;52.150;4.466;2024-03-17T07:15:10;12.38;;;6.57;;
66272;SDS011;58450;52.150;4.466;2024-03-17T07:17:38;15.32;;;7.20;;
66272;SDS011;58450;52.150;4.466;2024-03-17T07:20:05;11.52;;;6.30;;
66272;SDS011;58450;52.150;4.466;2024-03-17T07:22:35;13.75;;;6.18;;
66272;SDS011;58450;52.150;4.466;2024-03-17T07:25:04;15.23;;;6.07;;
66272;SDS011;58450;52.150;4.466;2024-03-17T07:27:32;16.38;;;7.07;;
66272;SDS011;58450;52.150;4.466;2024-03-17T07:29:59;15.57;;;6.70;;
66272;SDS011;58450;52.150;4.466;2024-03-17T07:32:27;13.20;;;6.80;;
66272;SDS011;58450;52.150;4.466;2024-03-17T07:34:54;11.73;;;6.22;;
66272;SDS011;58450;52.150;4.466;2024-03-17T07:37:22;12.57;;;6.43;;
66272;SDS011;58450;52.150;4.466;2024-03-17T07:39:49;13.40;;;6.53;;
66272;SDS011;58450;52.150;4.466;2024-03-17T07:42:18;11.88;;;6.28;;
66272;SDS011;58450;52.150;4.466;2024-03-17T07:44:46;14.65;;;6.82;;
66272;SDS011;58450;52.150;4.466;2024-03-17T07:47:13;12.63;;;6.40;;
66272;SDS011;58450;52.150;4.466;2024-03-17T07:49:41;15.55;;;7.47;;
66272;SDS011;58450;52.150;4.466;2024-03-17T07:52:08;11.77;;;6.72;;
66272;SDS011;58450;52.150;4.466;2024-03-17T07:54:35;13.50;;;6.43;;
66272;SDS011;58450;52.150;4.466;2024-03-17T07:57:03;14.07;;;6.57;;
66272;SDS011;58450;52.150;4.466;2024-03-17T07:59:32;13.27;;;6.45;;
66272;SDS011;58450;52.150;4.466;2024-03-17T08:02:00;16.63;;;7.63;;
66272;SDS011;58450;52.150;4.466;2024-03-17T08:04:28;12.07;;;6.35;;
66272;SDS011;58450;52.150;4.466;2024-03-17T08:06:56;11.93;;;6.28;;
66272;SDS011;58450;52.150;4.466;2024-03-17T08:09:23;13.35;;;6.68;;
66272;SDS011;58450;52.150;4.466;2024-03-17T08:11:52;14.90;;;6.72;;
66272;SDS011;58450;52.150;4.466;2024-03-17T08:14:19;13.30;;;6.57;;
66272;SDS011;58450;52.150;4.466;2024-03-17T08:16:48;13.80;;;6.78;;
66272;SDS011;58450;52.150;4.466;2024-03-17T08:19:15;15.68;;;7.05;;
66272;SDS011;58450;52.150;4.466;2024-03-17T08:21:43;13.82;;;6.78;;
66272;SDS011;58450;52.150;4.466;2024-03-17T08:24:11;14.40;;;7.30;;
66272;SDS011;58450;52.150;4.466;2024-03-17T08:26:38;13.05;;;6.97;;
66272;SDS011;58450;52.150;4.466;2024-03-17T08:29:06;20.75;;;6.93;;
66272;SDS011;58450;52.150;4.466;2024-03-17T08:31:34;13.52;;;6.80;;
66272;SDS011;58450;52.150;4.466;2024-03-17T08:34:04;14.23;;;7.28;;
66272;SDS011;58450;52.150;4.466;2024-03-17T08:36:31;18.13;;;6.80;;
66272;SDS011;58450;52.150;4.466;2024-03-17T08:38:59;12.48;;;6.30;;
66272;SDS011;58450;52.150;4.466;2024-03-17T08:41:27;13.23;;;7.05;;
66272;SDS011;58450;52.150;4.466;2024-03-17T08:43:56;12.95;;;6.90;;
66272;SDS011;58450;52.150;4.466;2024-03-17T08:46:24;12.35;;;7.10;;
66272;SDS011;58450;52.150;4.466;2024-03-17T08:48:52;16.42;;;7.45;;
66272;SDS011;58450;52.150;4.466;2024-03-17T08:51:20;13.05;;;6.78;;
66272;SDS011;58450;52.150;4.466;2024-03-17T08:53:48;13.23;;;6.60;;
66272;SDS011;58450;52.150;4.466;2024-03-17T08:56:16;14.43;;;6.43;;
66272;SDS011;58450;52.150;4.466;2024-03-17T08:58:44;14.30;;;6.75;;
66272;SDS011;58450;52.150;4.466;2024-03-17T09:01:12;13.13;;;6.45;;
66272;SDS011;58450;52.150;4.466;2024-03-17T09:03:42;14.60;;;6.40;;
66272;SDS011;58450;52.150;4.466;2024-03-17T09:06:16;13.13;;;5.93;;
66272;SDS011;58450;52.150;4.466;2024-03-17T09:08:47;11.18;;;5.93;;
66272;SDS011;58450;52.150;4.466;2024-03-17T09:11:14;13.80;;;6.10;;
66272;SDS011;58450;52.150;4.466;2024-03-17T09:13:41;14.40;;;6.43;;
66272;SDS011;58450;52.150;4.466;2024-03-17T09:16:09;12.30;;;6.55;;
66272;SDS011;58450;52.150;4.466;2024-03-17T09:18:39;11.80;;;6.00;;
66272;SDS011;58450;52.150;4.466;2024-03-17T09:21:07;13.32;;;6.85;;
66272;SDS011;58450;52.150;4.466;2024-03-17T09:23:36;10.73;;;5.70;;
66272;SDS011;58450;52.150;4.466;2024-03-17T09:26:06;11.85;;;5.88;;
66272;SDS011;58450;52.150;4.466;2024-03-17T09:28:35;12.15;;;5.95;;
66272;SDS011;58450;52.150;4.466;2024-03-17T09:31:04;15.20;;;6.30;;
66272;SDS011;58450;52.150;4.466;2024-03-17T09:33:33;10.32;;;5.63;;
66272;SDS011;58450;52.150;4.466;2024-03-17T09:36:03;11.40;;;6.00;;
66272;SDS011;58450;52.150;4.466;2024-03-17T09:38:33;12.80;;;6.10;;
66272;SDS011;58450;52.150;4.466;2024-03-17T09:41:02;11.30;;;4.80;;
66272;SDS011;58450;52.150;4.466;2024-03-17T09:43:32;12.38;;;6.07;;
66272;SDS011;58450;52.150;4.466;2024-03-17T09:46:01;11.00;;;6.05;;
66272;SDS011;58450;52.150;4.466;2024-03-17T09:48:30;10.80;;;5.90;;
66272;SDS011;58450;52.150;4.466;2024-03-17T09:50:58;12.15;;;5.80;;
66272;SDS011;58450;52.150;4.466;2024-03-17T09:53:28;13.63;;;5.88;;
66272;SDS011;58450;52.150;4.466;2024-03-17T09:55:57;9.70;;;4.80;;
66272;SDS011;58450;52.150;4.466;2024-03-17T09:58:31;14.97;;;5.50;;
66272;SDS011;58450;52.150;4.466;2024-03-17T10:00:59;10.55;;;5.70;;
66272;SDS011;58450;52.150;4.466;2024-03-17T10:03:39;11.05;;;5.47;;
66272;SDS011;58450;52.150;4.466;2024-03-17T10:06:12;13.20;;;5.82;;
66272;SDS011;58450;52.150;4.466;2024-03-17T10:08:40;11.95;;;5.60;;
66272;SDS011;58450;52.150;4.466;2024-03-17T10:11:10;10.50;;;4.90;;
66272;SDS011;58450;52.150;4.466;2024-03-17T10:13:40;9.20;;;5.50;;
66272;SDS011;58450;52.150;4.466;2024-03-17T10:16:15;10.48;;;5.80;;
66272;SDS011;58450;52.150;4.466;2024-03-17T10:18:50;10.95;;;5.22;;
66272;SDS011;58450;52.150;4.466;2024-03-17T10:21:31;11.88;;;5.97;;
66272;SDS011;58450;52.150;4.466;2024-03-17T10:24:05;11.23;;;5.80;;
66272;SDS011;58450;52.150;4.466;2024-03-17T10:26:36;11.40;;;5.50;;
66272;SDS011;58450;52.150;4.466;2024-03-17T10:29:17;11.95;;;5.80;;
66272;SDS011;58450;52.150;4.466;2024-03-17T10:31:50;15.18;;;5.78;;
66272;SDS011;58450;52.150;4.466;2024-03-17T10:34:19;14.52;;;5.65;;
66272;SDS011;58450;52.150;4.466;2024-03-17T10:36:50;11.05;;;5.25;;
66272;SDS011;58450;52.150;4.466;2024-03-17T10:39:25;11.93;;;5.68;;
66272;SDS011;58450;52.150;4.466;2024-03-17T10:41:59;11.88;;;5.43;;
66272;SDS011;58450;52.150;4.466;2024-03-17T10:44:29;10.43;;;5.18;;
66272;SDS011;58450;52.150;4.466;2024-03-17T10:46:59;9.77;;;5.30;;
66272;SDS011;58450;52.150;4.466;2024-03-17T10:49:30;9.60;;;5.53;;
66272;SDS011;58450;52.150;4.466;2024-03-17T10:52:00;11.27;;;5.30;;
66272;SDS011;58450;52.150;4.466;2024-03-17T10:54:30;11.65;;;5.65;;
66272;SDS011;58450;52.150;4.466;2024-03-17T10:57:02;10.30;;;5.70;;
66272;SDS011;58450;52.150;4.466;2024-03-17T10:59:49;10.90;;;5.72;;
66272;SDS011;58450;52.150;4.466;2024-03-17T11:02:22;10.18;;;5.35;;
66272;SDS011;58450;52.150;4.466;2024-03-17T11:04:54;12.48;;;5.88;;
66272;SDS011;58450;52.150;4.466;2024-03-17T11:07:25;13.10;;;6.55;;
66272;SDS011;58450;52.150;4.466;2024-03-17T11:09:55;12.82;;;6.22;;
66272;SDS011;58450;52.150;4.466;2024-03-17T11:21:17;12.10;;;6.03;;
66272;SDS011;58450;52.150;4.466;2024-03-17T11:24:00;11.65;;;5.85;;
66272;SDS011;58450;52.150;4.466;2024-03-17T11:26:30;14.55;;;5.70;;
66272;SDS011;58450;52.150;4.466;2024-03-17T11:29:01;7.88;;;4.45;;
66272;SDS011;58450;52.150;4.466;2024-03-17T11:31:34;12.38;;;5.40;;
66272;SDS011;58450;52.150;4.466;2024-03-17T11:36:50;11.68;;;5.50;;
66272;SDS011;58450;52.150;4.466;2024-03-17T11:39:19;15.05;;;6.25;;
66272;SDS011;58450;52.150;4.466;2024-03-17T11:41:49;14.80;;;6.22;;
66272;SDS011;58450;52.150;4.466;2024-03-17T11:44:23;11.98;;;5.75;;
66272;SDS011;58450;52.150;4.466;2024-03-17T11:46:54;15.57;;;6.40;;
66272;SDS011;58450;52.150;4.466;2024-03-17T11:49:25;12.25;;;5.82;;
66272;SDS011;58450;52.150;4.466;2024-03-17T11:51:55;11.05;;;5.20;;
66272;SDS011;58450;52.150;4.466;2024-03-17T11:54:23;12.73;;;5.75;;
66272;SDS011;58450;52.150;4.466;2024-03-17T11:56:54;10.00;;;5.60;;
66272;SDS011;58450;52.150;4.466;2024-03-17T11:59:22;12.07;;;5.68;;
66272;SDS011;58450;52.150;4.466;2024-03-17T12:01:50;11.75;;;5.95;;
66272;SDS011;58450;52.150;4.466;2024-03-17T12:04:18;11.85;;;6.30;;
66272;SDS011;58450;52.150;4.466;2024-03-17T12:06:48;13.90;;;5.57;;
66272;SDS011;58450;52.150;4.466;2024-03-17T12:09:18;11.40;;;5.28;;
66272;SDS011;58450;52.150;4.466;2024-03-17T12:11:47;10.05;;;5.53;;
66272;SDS011;58450;52.150;4.466;2024-03-17T12:14:15;10.82;;;5.88;;
66272;SDS011;58450;52.150;4.466;2024-03-17T12:16:51;11.70;;;5.63;;
66272;SDS011;58450;52.150;4.466;2024-03-17T12:19:21;13.63;;;6.13;;
66272;SDS011;58450;52.150;4.466;2024-03-17T12:21:50;11.00;;;5.70;;
66272;SDS011;58450;52.150;4.466;2024-03-17T12:24:18;14.50;;;5.70;;
66272;SDS011;58450;52.150;4.466;2024-03-17T12:26:49;12.75;;;5.90;;
66272;SDS011;58450;52.150;4.466;2024-03-17T12:29:22;12.52;;;5.47;;
66272;SDS011;58450;52.150;4.466;2024-03-17T12:31:54;13.70;;;5.20;;
66272;SDS011;58450;52.150;4.466;2024-03-17T12:34:26;13.55;;;5.22;;
66272;SDS011;58450;52.150;4.466;2024-03-17T12:36:57;12.67;;;5.10;;
66272;SDS011;58450;52.150;4.466;2024-03-17T12:39:27;11.45;;;5.25;;
66272;SDS011;58450;52.150;4.466;2024-03-17T12:42:05;11.55;;;5.00;;
66272;SDS011;58450;52.150;4.466;2024-03-17T12:44:35;10.00;;;4.82;;
66272;SDS011;58450;52.150;4.466;2024-03-17T12:47:07;12.10;;;5.53;;
66272;SDS011;58450;52.150;4.466;2024-03-17T12:49:45;10.63;;;4.82;;
66272;SDS011;58450;52.150;4.466;2024-03-17T12:52:19;12.32;;;5.35;;
66272;SDS011;58450;52.150;4.466;2024-03-17T12:54:58;11.40;;;5.30;;
66272;SDS011;58450;52.150;4.466;2024-03-17T12:57:40;11.13;;;4.95;;
66272;SDS011;58450;52.150;4.466;2024-03-17T13:00:25;9.50;;;4.82;;
66272;SDS011;58450;52.150;4.466;2024-03-17T13:02:59;10.98;;;4.43;;
66272;SDS011;58450;52.150;4.466;2024-03-17T13:05:29;9.13;;;4.00;;
66272;SDS011;58450;52.150;4.466;2024-03-17T13:07:57;9.60;;;3.85;;
66272;SDS011;58450;52.150;4.466;2024-03-17T13:10:26;9.13;;;3.78;;
66272;SDS011;58450;52.150;4.466;2024-03-17T13:12:59;7.65;;;4.18;;
66272;SDS011;58450;52.150;4.466;2024-03-17T13:15:29;10.57;;;4.10;;
66272;SDS011;58450;52.150;4.466;2024-03-17T13:17:58;10.45;;;3.80;;
66272;SDS011;58450;52.150;4.466;2024-03-17T13:20:26;9.82;;;4.10;;
66272;SDS011;58450;52.150;4.466;2024-03-17T13:22:55;9.65;;;4.15;;
66272;SDS011;58450;52.150;4.466;2024-03-17T13:25:23;8.63;;;4.03;;
66272;SDS011;58450;52.150;4.466;2024-03-17T13:27:55;9.27;;;4.10;;
66272;SDS011;58450;52.150;4.466;2024-03-17T13:30:23;11.65;;;4.80;;
66272;SDS011;58450;52.150;4.466;2024-03-17T13:32:54;10.15;;;4.25;;
66272;SDS011;58450;52.150;4.466;2024-03-17T13:35:24;12.45;;;4.13;;
66272;SDS011;58450;52.150;4.466;2024-03-17T13:37:57;8.95;;;4.00;;
66272;SDS011;58450;52.150;4.466;2024-03-17T13:40:25;12.45;;;3.95;;
66272;SDS011;58450;52.150;4.466;2024-03-17T13:42:54;9.18;;;3.83;;
66272;SDS011;58450;52.150;4.466;2024-03-17T13:45:24;8.20;;;3.80;;
66272;SDS011;58450;52.150;4.466;2024-03-17T13:47:57;11.60;;;3.90;;
66272;SDS011;58450;52.150;4.466;2024-03-17T13:50:25;7.20;;;3.50;;
66272;SDS011;58450;52.150;4.466;2024-03-17T13:52:53;10.68;;;4.22;;
66272;SDS011;58450;52.150;4.466;2024-03-17T13:55:22;14.02;;;4.15;;
66272;SDS011;58450;52.150;4.466;2024-03-17T13:57:52;10.52;;;3.90;;
66272;SDS011;58450;52.150;4.466;2024-03-17T14:00:22;11.65;;;3.88;;
66272;SDS011;58450;52.150;4.466;2024-03-17T14:02:51;12.32;;;4.13;;
66272;SDS011;58450;52.150;4.466;2024-03-17T14:05:22;9.13;;;3.55;;
66272;SDS011;58450;52.150;4.466;2024-03-17T14:07:52;11.55;;;4.20;;
66272;SDS011;58450;52.150;4.466;2024-03-17T14:10:21;13.90;;;3.97;;
66272;SDS011;58450;52.150;4.466;2024-03-17T14:12:52;8.77;;;3.60;;
66272;SDS011;58450;52.150;4.466;2024-03-17T14:15:20;10.57;;;3.85;;
66272;SDS011;58450;52.150;4.466;2024-03-17T14:17:47;9.55;;;3.80;;
66272;SDS011;58450;52.150;4.466;2024-03-17T14:20:16;11.60;;;3.63;;
66272;SDS011;58450;52.150;4.466;2024-03-17T14:22:45;9.55;;;3.97;;
66272;SDS011;58450;52.150;4.466;2024-03-17T14:25:19;8.75;;;3.72;;
66272;SDS011;58450;52.150;4.466;2024-03-17T14:27:49;7.45;;;3.50;;
66272;SDS011;58450;52.150;4.466;2024-03-17T14:30:17;11.05;;;3.50;;
66272;SDS011;58450;52.150;4.466;2024-03-17T14:32:46;7.05;;;2.95;;
66272;SDS011;58450;52.150;4.466;2024-03-17T14:35:15;11.02;;;3.60;;
66272;SDS011;58450;52.150;4.466;2024-03-17T14:37:46;6.47;;;2.80;;
66272;SDS011;58450;52.150;4.466;2024-03-17T14:40:14;10.32;;;3.60;;
66272;SDS011;58450;52.150;4.466;2024-03-17T14:42:50;9.13;;;3.30;;
66272;SDS011;58450;52.150;4.466;2024-03-17T14:45:18;9.15;;;3.60;;
66272;SDS011;58450;52.150;4.466;2024-03-17T14:47:48;6.38;;;3.10;;
66272;SDS011;58450;52.150;4.466;2024-03-17T14:50:17;7.30;;;3.05;;
66272;SDS011;58450;52.150;4.466;2024-03-17T14:52:45;12.32;;;3.30;;
66272;SDS011;58450;52.150;4.466;2024-03-17T14:55:12;8.18;;;3.38;;
66272;SDS011;58450;52.150;4.466;2024-03-17T14:57:40;10.88;;;3.70;;
66272;SDS011;58450;52.150;4.466;2024-03-17T15:00:10;12.43;;;3.55;;